createdAt,value
2018-06-13T00:01:18.801Z,68.50
2018-06-13T00:03:46.708Z,68.60
2018-06-13T00:06:14.548Z,68.60
2018-06-13T00:08:42.454Z,68.70
2018-06-13T00:14:16.615Z,68.90
2018-06-13T00:16:44.492Z,68.90
2018-06-13T00:19:12.353Z,69.00
2018-06-13T00:21:40.292Z,69.10
2018-06-13T00:24:08.084Z,69.10
2018-06-13T00:26:35.932Z,69.30
2018-06-13T00:29:03.816Z,69.40
2018-06-13T00:31:31.683Z,69.60
2018-06-13T00:33:59.601Z,69.70
2018-06-13T00:36:27.460Z,69.70
2018-06-13T00:41:23.158Z,69.80
2018-06-13T00:43:50.971Z,69.90
2018-06-13T00:46:18.788Z,70.00
2018-06-13T00:48:46.649Z,70.10
2018-06-13T00:51:14.561Z,70.20
2018-06-13T00:53:42.361Z,70.10
2018-06-13T00:56:29.228Z,70.30
2018-06-13T00:58:57.129Z,70.40
2018-06-13T01:01:25.061Z,70.80
2018-06-13T01:03:53.013Z,70.50
2018-06-13T01:06:20.900Z,70.50
2018-06-13T01:08:48.783Z,70.50
2018-06-13T01:11:16.636Z,70.60
2018-06-13T01:13:44.540Z,70.50
2018-06-13T01:16:12.469Z,70.50
2018-06-13T01:18:40.284Z,70.50
2018-06-13T01:21:08.170Z,70.50
2018-06-13T01:23:36.070Z,70.50
2018-06-13T01:26:03.929Z,70.60
2018-06-13T01:28:31.729Z,70.00
2018-06-13T01:30:59.604Z,70.60
2018-06-13T01:33:27.487Z,70.60
2018-06-13T01:35:55.347Z,70.60
2018-06-13T01:38:23.216Z,70.60
2018-06-13T01:40:51.101Z,70.50
2018-06-13T01:43:19.020Z,70.50
2018-06-13T01:45:46.930Z,70.40
2018-06-13T01:48:14.792Z,70.50
2018-06-13T01:50:54.679Z,70.50
2018-06-13T01:53:22.880Z,70.50
2018-06-13T01:55:50.744Z,70.50
2018-06-13T01:58:18.546Z,70.60
2018-06-13T02:00:46.435Z,70.60
2018-06-13T02:03:14.292Z,70.70
2018-06-13T02:05:42.104Z,70.80
2018-06-13T02:08:10.046Z,70.80
2018-06-13T02:10:37.894Z,70.80
2018-06-13T02:13:05.905Z,70.90
2018-06-13T02:15:33.733Z,71.10
2018-06-13T02:18:01.689Z,71.20
2018-06-13T02:20:29.514Z,71.20
2018-06-13T02:22:57.355Z,71.40
2018-06-13T02:25:25.225Z,72.10
2018-06-13T02:27:53.077Z,71.70
2018-06-13T02:30:20.935Z,71.90
2018-06-13T02:32:48.795Z,72.00
2018-06-13T02:35:16.604Z,72.10
2018-06-13T02:37:44.461Z,72.20
2018-06-13T02:40:12.326Z,72.30
2018-06-13T02:42:40.169Z,72.40
2018-06-13T02:45:08.029Z,72.40
2018-06-13T02:47:35.964Z,72.50
2018-06-13T02:50:03.910Z,72.60
2018-06-13T02:52:31.764Z,72.80
2018-06-13T02:54:59.617Z,72.90
2018-06-13T02:57:27.474Z,72.90
2018-06-13T02:59:55.445Z,73.00
2018-06-13T03:02:23.301Z,73.10
2018-06-13T03:04:51.276Z,73.20
2018-06-13T03:07:19.132Z,73.30
2018-06-13T03:09:46.992Z,73.30
2018-06-13T03:12:14.820Z,73.30
2018-06-13T03:14:42.682Z,73.30
2018-06-13T03:17:10.600Z,73.30
2018-06-13T03:19:38.452Z,73.30
2018-06-13T03:22:06.340Z,73.40
2018-06-13T03:24:34.232Z,73.40
2018-06-13T03:27:02.131Z,73.40
2018-06-13T03:29:29.936Z,73.40
2018-06-13T03:31:57.797Z,73.50
2018-06-13T03:34:25.601Z,73.50
2018-06-13T03:36:53.453Z,73.50
2018-06-13T03:39:21.379Z,73.60
2018-06-13T03:44:17.121Z,73.80
2018-06-13T03:46:44.997Z,73.90
2018-06-13T03:49:12.808Z,74.00
2018-06-13T03:51:40.634Z,74.00
2018-06-13T03:54:08.468Z,74.00
2018-06-13T03:56:36.245Z,74.10
2018-06-13T03:59:04.314Z,74.20
2018-06-13T04:01:32.124Z,74.20
2018-06-13T04:03:59.925Z,74.10
2018-06-13T04:06:27.826Z,74.20
2018-06-13T04:08:55.690Z,74.20
2018-06-13T04:13:51.354Z,74.40
2018-06-13T04:16:19.137Z,74.40
2018-06-13T04:18:46.876Z,74.50
2018-06-13T04:21:14.745Z,74.60
2018-06-13T04:23:42.542Z,74.60
2018-06-13T04:26:10.332Z,74.60
2018-06-13T04:28:38.161Z,74.60
2018-06-13T04:31:06.021Z,74.50
2018-06-13T04:33:33.832Z,74.40
2018-06-13T04:36:01.709Z,74.40
2018-06-13T04:38:29.512Z,74.40
2018-06-13T04:40:57.354Z,74.20
2018-06-13T04:43:25.202Z,74.30
2018-06-13T04:45:53.029Z,74.20
2018-06-13T04:48:20.854Z,73.50
2018-06-13T04:50:48.786Z,74.10
2018-06-13T04:53:16.614Z,74.10
2018-06-13T04:55:44.446Z,74.10
2018-06-13T04:58:12.261Z,74.10
2018-06-13T05:00:40.303Z,74.00
2018-06-13T05:03:08.113Z,74.00
2018-06-13T05:05:35.966Z,74.00
2018-06-13T05:08:03.888Z,74.20
2018-06-13T05:10:31.721Z,74.10
2018-06-13T05:12:59.572Z,74.10
2018-06-13T05:15:27.363Z,74.30
2018-06-13T05:17:55.228Z,74.20
2018-06-13T05:20:23.130Z,74.10
2018-06-13T05:22:51.153Z,74.10
2018-06-13T05:25:19.032Z,74.10
2018-06-13T05:27:46.914Z,73.90
2018-06-13T05:30:14.713Z,74.00
2018-06-13T05:32:42.540Z,74.00
2018-06-13T05:35:10.408Z,74.00
2018-06-13T05:37:38.310Z,74.10
2018-06-13T05:40:06.316Z,74.20
2018-06-13T05:42:34.170Z,74.20
2018-06-13T05:45:02.054Z,74.10
2018-06-13T05:47:29.941Z,74.00
2018-06-13T05:49:57.781Z,74.20
2018-06-13T05:52:25.586Z,74.40
2018-06-13T05:54:53.446Z,74.30
2018-06-13T05:57:21.399Z,74.20
2018-06-13T05:59:49.314Z,74.00
2018-06-13T06:02:17.156Z,73.90
2018-06-13T06:04:44.989Z,73.60
2018-06-13T06:07:12.901Z,73.20
2018-06-13T06:09:40.806Z,73.10
2018-06-13T06:12:08.664Z,73.00
2018-06-13T06:14:36.536Z,73.00
2018-06-13T06:17:04.608Z,72.90
2018-06-13T06:19:32.444Z,72.60
2018-06-13T06:22:00.277Z,72.50
2018-06-13T06:24:28.058Z,72.20
2018-06-13T06:26:55.853Z,72.00
2018-06-13T06:29:37.033Z,71.90
2018-06-13T06:32:04.959Z,71.50
2018-06-13T06:34:32.841Z,71.50
2018-06-13T06:37:00.710Z,71.50
2018-06-13T06:39:28.493Z,72.00
2018-06-13T06:41:56.349Z,71.20
2018-06-13T06:44:24.100Z,70.90
2018-06-13T06:46:51.905Z,70.60
2018-06-13T06:49:19.757Z,70.40
2018-06-13T06:51:47.618Z,70.50
2018-06-13T06:54:15.447Z,69.80
2018-06-13T06:56:43.484Z,69.10
2018-06-13T06:59:11.353Z,68.30
2018-06-13T07:01:39.193Z,67.50
2018-06-13T07:04:06.992Z,67.10
2018-06-13T07:06:34.784Z,66.30
2018-06-13T07:09:02.610Z,64.30
2018-06-13T07:11:30.445Z,63.10
2018-06-13T07:13:58.293Z,62.50
2018-06-13T07:16:26.132Z,62.60
2018-06-13T07:18:54.094Z,61.90
2018-06-13T07:21:21.944Z,60.60
2018-06-13T07:23:49.870Z,60.60
2018-06-13T07:26:17.716Z,60.10
2018-06-13T07:28:45.565Z,59.20
2018-06-13T07:31:13.357Z,58.10
2018-06-13T07:33:41.298Z,58.00
2018-06-13T07:36:09.165Z,57.50
2018-06-13T07:38:36.980Z,57.10
2018-06-13T07:41:04.785Z,56.70
2018-06-13T07:43:32.596Z,57.00
2018-06-13T07:46:00.482Z,56.60
2018-06-13T07:48:28.356Z,55.80
2018-06-13T07:50:56.123Z,55.40
2018-06-13T07:53:23.902Z,54.10
2018-06-13T07:55:51.781Z,53.70
2018-06-13T07:58:19.657Z,53.50
2018-06-13T08:00:47.562Z,52.80
2018-06-13T08:03:15.428Z,53.10
2018-06-13T08:05:43.336Z,52.60
2018-06-13T08:10:38.887Z,52.30
2018-06-13T08:13:06.761Z,53.10
2018-06-13T08:15:34.638Z,53.50
2018-06-13T08:18:02.515Z,54.20
2018-06-13T08:20:30.391Z,54.80
2018-06-13T08:22:58.246Z,55.00
2018-06-13T08:25:26.101Z,55.20
2018-06-13T08:27:53.923Z,54.10
2018-06-13T08:30:21.736Z,54.10
2018-06-13T08:32:49.580Z,53.70
2018-06-13T08:35:17.417Z,52.50
2018-06-13T08:37:45.241Z,51.70
2018-06-13T08:40:13.069Z,50.50
2018-06-13T08:42:40.894Z,50.90
2018-06-13T08:45:08.689Z,50.00
2018-06-13T08:47:36.607Z,49.40
2018-06-13T08:50:04.471Z,49.50
2018-06-13T08:52:32.319Z,49.80
2018-06-13T08:55:00.220Z,50.20
2018-06-13T08:57:27.986Z,50.50
2018-06-13T08:59:55.747Z,50.30
2018-06-13T09:02:23.629Z,51.40
2018-06-13T09:04:51.532Z,51.80
2018-06-13T09:09:47.191Z,52.50
2018-06-13T09:12:15.067Z,52.40
2018-06-13T09:14:42.953Z,52.10
2018-06-13T09:17:10.865Z,51.80
2018-06-13T09:19:38.654Z,50.90
2018-06-13T09:22:06.500Z,49.70
2018-06-13T09:24:34.428Z,48.60
2018-06-13T09:27:02.283Z,47.40
2018-06-13T09:29:30.093Z,45.90
2018-06-13T09:31:57.950Z,45.40
2018-06-13T09:34:25.888Z,45.20
2018-06-13T09:36:53.744Z,45.00
2018-06-13T09:39:21.539Z,43.00
2018-06-13T09:41:55.046Z,43.30
2018-06-13T09:44:22.853Z,42.50
2018-06-13T09:46:50.690Z,42.70
2018-06-13T09:49:18.499Z,41.90
2018-06-13T09:51:46.293Z,42.10
2018-06-13T09:54:14.168Z,41.20
2018-06-13T09:56:42.024Z,40.00
2018-06-13T09:59:13.439Z,39.70
2018-06-13T10:01:48.003Z,39.90
2018-06-13T10:04:15.741Z,39.40
2018-06-13T10:06:43.522Z,39.20
2018-06-13T10:09:11.339Z,37.90
2018-06-13T10:11:39.193Z,38.80
2018-06-13T10:14:07.006Z,39.00
2018-06-13T10:16:34.928Z,39.80
2018-06-13T10:19:02.744Z,40.50
2018-06-13T10:21:36.916Z,40.80
2018-06-13T10:24:04.760Z,41.10
2018-06-13T10:26:32.622Z,41.10
2018-06-13T10:29:00.515Z,40.70
2018-06-13T10:31:28.305Z,40.90
2018-06-13T10:33:56.182Z,40.70
2018-06-13T10:36:24.072Z,41.10
2018-06-13T10:38:57.604Z,40.90
2018-06-13T10:41:25.346Z,41.50
2018-06-13T10:43:53.180Z,41.60
2018-06-13T10:46:21.001Z,41.50
2018-06-13T10:48:48.873Z,41.00
2018-06-13T10:51:16.736Z,40.50
2018-06-13T10:53:44.529Z,40.90
2018-06-13T10:56:12.440Z,41.60
2018-06-13T10:58:40.202Z,41.50
2018-06-13T11:01:08.079Z,41.60
2018-06-13T11:03:35.941Z,41.20
2018-06-13T11:06:03.814Z,40.90
2018-06-13T11:08:31.542Z,40.70
2018-06-13T11:10:59.334Z,39.50
2018-06-13T11:13:27.165Z,38.50
2018-06-13T11:15:55.001Z,37.10
2018-06-13T11:18:22.823Z,37.10
2018-06-13T11:20:50.669Z,38.80
2018-06-13T11:23:18.469Z,38.20
2018-06-13T11:25:46.289Z,38.20
2018-06-13T11:28:14.110Z,37.30
2018-06-13T11:30:41.909Z,36.90
2018-06-13T11:33:09.700Z,37.40
2018-06-13T11:35:37.578Z,36.70
2018-06-13T11:38:05.588Z,37.00
2018-06-13T11:40:33.400Z,36.50
2018-06-13T11:43:01.260Z,35.40
2018-06-13T11:45:28.981Z,34.50
2018-06-13T11:47:56.787Z,34.10
2018-06-13T11:50:24.519Z,34.50
2018-06-13T11:52:52.388Z,34.80
2018-06-13T11:55:20.191Z,35.30
2018-06-13T11:57:48.004Z,36.00
2018-06-13T12:00:15.962Z,36.80
2018-06-13T12:02:43.673Z,37.10
2018-06-13T12:05:11.506Z,37.50
2018-06-13T12:07:39.389Z,38.10
2018-06-13T12:10:07.276Z,37.10
2018-06-13T12:12:35.073Z,37.40
2018-06-13T12:15:02.896Z,38.10
2018-06-13T12:17:30.786Z,37.30
2018-06-13T12:19:58.586Z,37.10
2018-06-13T12:22:26.556Z,37.60
2018-06-13T12:24:54.420Z,38.00
2018-06-13T12:27:22.215Z,38.90
2018-06-13T12:29:50.105Z,39.30
2018-06-13T12:32:18.033Z,39.50
2018-06-13T12:34:45.897Z,40.00
2018-06-13T12:37:13.816Z,38.40
2018-06-13T12:39:41.677Z,37.90
2018-06-13T12:42:09.617Z,38.40
2018-06-13T12:44:37.596Z,37.80
2018-06-13T12:47:05.610Z,38.80
2018-06-13T12:49:33.525Z,39.00
2018-06-13T12:52:21.609Z,38.30
2018-06-13T12:54:49.458Z,38.60
2018-06-13T12:57:39.144Z,39.60
2018-06-13T13:00:33.233Z,39.30
2018-06-13T13:03:02.170Z,39.20
2018-06-13T13:05:30.010Z,39.30
2018-06-13T13:07:57.895Z,39.20
2018-06-13T13:10:25.803Z,38.90
2018-06-13T13:12:53.620Z,38.90
2018-06-13T13:15:21.408Z,39.30
2018-06-13T13:24:08.752Z,38.50
2018-06-13T13:26:36.558Z,37.70
2018-06-13T13:29:04.341Z,37.90
2018-06-13T13:31:32.272Z,38.40
2018-06-13T13:34:00.182Z,39.00
2018-06-13T13:36:28.089Z,40.10
2018-06-13T13:39:07.001Z,41.90
2018-06-13T13:44:55.509Z,43.30
2018-06-13T13:47:23.337Z,44.30
2018-06-13T13:49:51.197Z,44.90
2018-06-13T13:52:19.126Z,45.00
2018-06-13T13:55:00.700Z,45.00
2018-06-13T13:57:28.578Z,45.30
2018-06-13T14:00:26.494Z,45.70
2018-06-13T14:02:55.442Z,45.80
2018-06-13T14:05:23.309Z,46.10
2018-06-13T14:07:53.230Z,46.50
2018-06-13T14:10:22.226Z,46.30
2018-06-13T14:15:53.654Z,45.90
2018-06-13T14:18:33.027Z,46.00
2018-06-13T14:21:12.633Z,45.70
2018-06-13T14:26:40.643Z,46.00
2018-06-13T14:29:08.483Z,46.00
2018-06-13T14:31:36.306Z,45.40
2018-06-13T14:34:04.201Z,45.50
2018-06-13T14:39:39.216Z,46.10
2018-06-13T14:42:07.361Z,46.60
2018-06-13T14:44:48.560Z,47.70
2018-06-13T14:47:16.348Z,48.40
2018-06-13T14:49:44.272Z,49.10
2018-06-13T14:52:31.949Z,49.70
2018-06-13T14:58:11.106Z,50.00
2018-06-13T15:06:59.504Z,50.10
2018-06-13T15:09:38.124Z,50.30
2018-06-13T15:12:06.096Z,50.30
2018-06-13T15:14:33.943Z,50.90
2018-06-13T15:17:01.892Z,50.50
2018-06-13T15:19:29.717Z,50.50
2018-06-13T15:22:20.672Z,50.50
2018-06-13T15:24:48.547Z,50.90
2018-06-13T15:27:46.264Z,51.10
2018-06-13T15:30:14.149Z,50.90
2018-06-13T15:32:42.036Z,50.90
2018-06-13T15:35:09.962Z,51.40
2018-06-13T15:37:37.856Z,51.50
2018-06-13T15:40:05.772Z,51.80
2018-06-13T15:42:33.638Z,52.10
2018-06-13T15:45:01.504Z,52.40
2018-06-13T15:47:29.388Z,52.60
2018-06-13T15:49:57.254Z,52.50
2018-06-13T15:52:25.121Z,52.50
2018-06-13T15:54:52.946Z,52.50
2018-06-13T15:57:20.782Z,52.90
2018-06-13T15:59:48.716Z,53.00
2018-06-13T16:02:16.580Z,53.40
2018-06-13T16:04:44.512Z,54.00
2018-06-13T16:07:12.401Z,54.30
2018-06-13T16:09:40.452Z,54.70
2018-06-13T16:12:08.373Z,54.90
2018-06-13T16:14:36.211Z,54.80
2018-06-13T16:17:04.220Z,55.10
2018-06-13T16:19:32.120Z,55.10
2018-06-13T16:22:00.065Z,55.80
2018-06-13T16:24:27.901Z,56.20
2018-06-13T16:26:55.787Z,56.50
2018-06-13T16:29:23.703Z,56.80
2018-06-13T16:31:51.501Z,57.10
2018-06-13T16:34:19.410Z,57.40
2018-06-13T16:36:47.275Z,57.50
2018-06-13T16:39:15.128Z,57.50
2018-06-13T16:41:43.057Z,57.60
2018-06-13T16:44:10.920Z,57.60
2018-06-13T16:46:38.823Z,57.60
2018-06-13T16:49:06.729Z,57.80
2018-06-13T16:51:54.654Z,58.20
2018-06-13T16:54:39.925Z,58.70
2018-06-13T16:57:07.809Z,59.10
2018-06-13T16:59:35.709Z,59.50
2018-06-13T17:02:03.677Z,59.80
2018-06-13T17:04:31.597Z,60.10
2018-06-13T17:06:59.403Z,60.50
2018-06-13T17:09:27.313Z,61.00
2018-06-13T17:11:55.187Z,61.40
2018-06-13T17:14:23.045Z,61.70
2018-06-13T17:16:50.961Z,62.10
2018-06-13T17:19:18.836Z,62.50
2018-06-13T17:21:46.756Z,62.80
2018-06-13T17:26:42.540Z,63.70
2018-06-13T17:29:10.404Z,64.10
2018-06-13T17:31:38.217Z,64.30
2018-06-13T17:34:06.078Z,64.80
2018-06-13T17:36:33.960Z,65.30
2018-06-13T17:39:01.821Z,65.50
2018-06-13T17:41:29.680Z,66.00
2018-06-13T17:43:57.609Z,66.20
2018-06-13T17:46:25.561Z,66.60
2018-06-13T17:48:53.648Z,67.00
2018-06-13T17:51:21.537Z,67.30
2018-06-13T17:53:49.366Z,67.60
2018-06-13T17:56:17.313Z,67.90
2018-06-13T17:58:45.177Z,68.20
2018-06-13T18:01:13.073Z,68.70
2018-06-13T18:03:40.916Z,68.80
2018-06-13T18:06:08.817Z,68.90
2018-06-13T18:08:36.632Z,69.10
2018-06-13T18:11:04.469Z,69.30
2018-06-13T18:13:32.324Z,69.50
2018-06-13T18:16:00.079Z,69.50
2018-06-13T18:18:27.904Z,69.70
2018-06-13T18:20:55.784Z,69.80
2018-06-13T18:23:23.621Z,69.90
2018-06-13T18:25:51.517Z,70.10
2018-06-13T18:28:19.334Z,70.40
2018-06-13T18:30:47.212Z,70.70
2018-06-13T18:33:15.109Z,70.80
2018-06-13T18:35:46.576Z,71.00
2018-06-13T18:38:14.369Z,71.20
2018-06-13T18:40:42.273Z,71.50
2018-06-13T18:43:13.671Z,71.70
2018-06-13T18:45:41.486Z,71.90
2018-06-13T18:48:09.309Z,72.10
2018-06-13T18:50:37.116Z,72.40
2018-06-13T18:53:14.961Z,72.70
2018-06-13T18:56:08.204Z,72.80
2018-06-13T18:58:53.085Z,73.00
2018-06-13T19:01:20.928Z,73.10
2018-06-13T19:03:48.841Z,73.50
2018-06-13T19:06:16.705Z,73.90
2018-06-13T19:08:44.582Z,74.20
2018-06-13T19:11:12.512Z,74.30
2018-06-13T19:13:46.805Z,74.50
2018-06-13T19:16:14.898Z,74.90
2018-06-13T19:18:42.764Z,75.00
2018-06-13T19:23:38.544Z,75.10
2018-06-13T19:26:06.542Z,75.30
2018-06-13T19:28:34.524Z,75.50
2018-06-13T19:31:02.336Z,75.60
2018-06-13T19:33:30.197Z,75.70
2018-06-13T19:35:58.048Z,75.80
2018-06-13T19:38:25.927Z,76.00
2018-06-13T19:40:53.798Z,76.20
2018-06-13T19:43:27.544Z,76.20
2018-06-13T19:45:55.437Z,76.40
2018-06-13T19:48:29.056Z,76.40
2018-06-13T19:50:56.946Z,76.60
2018-06-13T19:53:30.602Z,76.60
2018-06-13T19:56:04.203Z,76.60
2018-06-13T19:58:32.638Z,77.20
2018-06-13T20:01:00.499Z,76.50
2018-06-13T20:03:34.220Z,76.70
2018-06-13T20:06:02.082Z,76.80
2018-06-13T20:08:29.904Z,76.90
2018-06-13T20:10:57.704Z,76.90
2018-06-13T20:13:31.367Z,77.00
2018-06-13T20:16:04.922Z,77.10
2018-06-13T20:18:38.507Z,77.30
2018-06-13T20:21:07.609Z,77.30
2018-06-13T20:23:35.473Z,77.30
2018-06-13T20:26:09.042Z,77.30
2018-06-13T20:28:42.641Z,77.40
2018-06-13T20:31:13.835Z,77.60
2018-06-13T20:33:41.994Z,78.00
2018-06-13T20:36:09.825Z,78.00
2018-06-13T20:38:37.793Z,78.20
2018-06-13T20:41:05.689Z,78.30
2018-06-13T20:43:33.574Z,78.50
2018-06-13T20:46:01.479Z,78.80
2018-06-13T20:48:29.360Z,78.90
2018-06-13T20:50:57.235Z,79.20
2018-06-13T20:53:50.462Z,80.20
2018-06-13T20:56:21.422Z,79.40
2018-06-13T20:59:14.102Z,79.60
2018-06-13T21:01:47.873Z,79.80
2018-06-13T21:04:21.223Z,79.90
2018-06-13T21:07:12.779Z,80.10
2018-06-13T21:09:46.732Z,80.20
2018-06-13T21:12:20.958Z,80.20
2018-06-13T21:14:54.755Z,80.40
2018-06-13T21:22:54.135Z,80.70
2018-06-13T21:25:40.865Z,80.50
2018-06-13T21:28:08.732Z,80.60
2018-06-13T21:30:36.561Z,80.60
2018-06-13T21:33:04.476Z,80.50
2018-06-13T21:35:32.261Z,80.50
2018-06-13T21:38:00.172Z,80.70
2018-06-13T21:40:28.044Z,80.90
2018-06-13T21:42:55.830Z,81.10
2018-06-13T21:45:23.634Z,81.30
2018-06-13T21:47:51.550Z,81.40
2018-06-13T21:50:19.356Z,81.50
2018-06-13T21:52:47.167Z,81.90
2018-06-13T21:55:14.967Z,82.10
2018-06-13T21:57:42.816Z,82.30
2018-06-13T22:00:11.242Z,82.50
2018-06-13T22:02:39.307Z,82.50
2018-06-13T22:05:07.122Z,82.60
2018-06-13T22:07:35.005Z,82.70
2018-06-13T22:10:02.973Z,82.60
2018-06-13T22:12:30.790Z,82.70
2018-06-13T22:14:58.662Z,82.80
2018-06-13T22:17:26.512Z,82.80
2018-06-13T22:19:54.344Z,82.80
2018-06-13T22:22:22.173Z,83.00
2018-06-13T22:24:50.032Z,83.10
2018-06-13T22:27:17.904Z,83.20
2018-06-13T22:29:45.753Z,83.20
2018-06-13T22:32:13.573Z,83.20
2018-06-13T22:34:41.389Z,83.20
2018-06-13T22:37:09.304Z,83.10
2018-06-13T22:39:37.160Z,83.10
2018-06-13T22:42:04.967Z,83.20
2018-06-13T22:44:32.929Z,83.20
2018-06-13T22:47:00.735Z,83.20
2018-06-13T22:49:28.517Z,83.10
2018-06-13T22:51:56.428Z,83.00
2018-06-13T22:54:24.248Z,82.90
2018-06-13T22:56:52.064Z,82.80
2018-06-13T22:59:19.832Z,82.70
2018-06-13T23:01:47.532Z,82.60
2018-06-13T23:04:15.388Z,82.50
2018-06-13T23:06:43.259Z,82.40
2018-06-13T23:09:11.074Z,82.40
2018-06-13T23:11:38.960Z,82.40
2018-06-13T23:14:06.806Z,82.40
2018-06-13T23:16:34.716Z,82.30
2018-06-13T23:19:02.563Z,82.90
2018-06-13T23:21:30.397Z,82.10
2018-06-13T23:23:58.199Z,81.90
2018-06-13T23:26:26.005Z,81.90
2018-06-13T23:28:54.601Z,81.80
2018-06-13T23:31:22.445Z,81.70
2018-06-13T23:33:50.316Z,81.80
2018-06-13T23:36:18.213Z,81.80
2018-06-13T23:38:46.055Z,81.70
2018-06-13T23:41:13.942Z,81.70
2018-06-13T23:43:41.760Z,81.60
2018-06-13T23:46:09.627Z,81.70
2018-06-13T23:48:37.426Z,81.80
2018-06-13T23:51:05.233Z,82.20
2018-06-13T23:53:33.054Z,81.90
2018-06-13T23:56:00.908Z,81.90
2018-06-13T23:58:28.756Z,81.80
